sensor_id;sensor_type;location;lat;lon;timestamp;temperature;humidity
32614;DHT22;19031;51.400;6.770;2024-02-16T00:00:59;13.00;99.90
32614;DHT22;19031;51.400;6.770;2024-02-16T00:03:25;13.00;99.90
32614;DHT22;19031;51.400;6.770;2024-02-16T00:05:52;13.00;99.90
32614;DHT22;19031;51.400;6.770;2024-02-16T00:08:21;13.00;99.90
32614;DHT22;19031;51.400;6.770;2024-02-16T00:10:47;13.10;99.90
32614;DHT22;19031;51.400;6.770;2024-02-16T00:13:13;13.10;99.90
32614;DHT22;19031;51.400;6.770;2024-02-16T00:15:39;13.10;99.90
32614;DHT22;19031;51.400;6.770;2024-02-16T00:18:06;13.20;99.90
32614;DHT22;19031;51.400;6.770;2024-02-16T00:20:32;13.10;99.90
32614;DHT22;19031;51.400;6.770;2024-02-16T00:22:58;13.20;99.90
32614;DHT22;19031;51.400;6.770;2024-02-16T00:25:23;13.20;99.90
32614;DHT22;19031;51.400;6.770;2024-02-16T00:27:49;13.20;99.90
32614;DHT22;19031;51.400;6.770;2024-02-16T00:30:18;13.30;99.90
32614;DHT22;19031;51.400;6.770;2024-02-16T00:32:44;13.30;99.90
32614;DHT22;19031;51.400;6.770;2024-02-16T00:35:17;13.30;99.90
32614;DHT22;19031;51.400;6.770;2024-02-16T00:37:43;13.20;99.90
32614;DHT22;19031;51.400;6.770;2024-02-16T00:40:09;13.30;99.90
32614;DHT22;19031;51.400;6.770;2024-02-16T00:42:35;13.30;99.90
32614;DHT22;19031;51.400;6.770;2024-02-16T00:45:00;13.30;99.90
32614;DHT22;19031;51.400;6.770;2024-02-16T00:47:26;13.30;99.90
32614;DHT22;19031;51.400;6.770;2024-02-16T00:49:55;13.30;99.90
32614;DHT22;19031;51.400;6.770;2024-02-16T00:52:21;13.20;99.90
32614;DHT22;19031;51.400;6.770;2024-02-16T00:54:48;13.20;99.90
32614;DHT22;19031;51.400;6.770;2024-02-16T00:57:13;13.30;99.90
32614;DHT22;19031;51.400;6.770;2024-02-16T00:59:40;13.20;99.90
32614;DHT22;19031;51.400;6.770;2024-02-16T01:02:06;13.20;99.90
32614;DHT22;19031;51.400;6.770;2024-02-16T01:04:32;13.20;99.90
32614;DHT22;19031;51.400;6.770;2024-02-16T01:06:58;13.30;99.90
32614;DHT22;19031;51.400;6.770;2024-02-16T01:09:24;13.30;99.90
32614;DHT22;19031;51.400;6.770;2024-02-16T01:11:49;13.30;99.90
32614;DHT22;19031;51.400;6.770;2024-02-16T01:14:15;13.20;99.90
32614;DHT22;19031;51.400;6.770;2024-02-16T01:16:40;13.20;99.90
32614;DHT22;19031;51.400;6.770;2024-02-16T01:19:06;13.20;99.90
32614;DHT22;19031;51.400;6.770;2024-02-16T01:21:32;13.20;99.90
32614;DHT22;19031;51.400;6.770;2024-02-16T01:23:58;13.20;99.90
32614;DHT22;19031;51.400;6.770;2024-02-16T01:26:26;13.30;99.90
32614;DHT22;19031;51.400;6.770;2024-02-16T01:28:52;13.20;99.90
32614;DHT22;19031;51.400;6.770;2024-02-16T01:31:17;13.20;99.90
32614;DHT22;19031;51.400;6.770;2024-02-16T01:33:43;13.40;99.90
32614;DHT22;19031;51.400;6.770;2024-02-16T01:36:08;13.30;99.90
32614;DHT22;19031;51.400;6.770;2024-02-16T01:38:34;13.30;99.90
32614;DHT22;19031;51.400;6.770;2024-02-16T01:41:00;13.20;99.90
32614;DHT22;19031;51.400;6.770;2024-02-16T01:43:27;13.20;99.90
32614;DHT22;19031;51.400;6.770;2024-02-16T01:45:53;13.20;99.90
32614;DHT22;19031;51.400;6.770;2024-02-16T01:48:18;13.40;99.90
32614;DHT22;19031;51.400;6.770;2024-02-16T01:50:45;13.30;99.90
32614;DHT22;19031;51.400;6.770;2024-02-16T01:53:12;13.30;99.90
32614;DHT22;19031;51.400;6.770;2024-02-16T01:55:38;13.30;99.90
32614;DHT22;19031;51.400;6.770;2024-02-16T01:58:04;13.30;99.90
32614;DHT22;19031;51.400;6.770;2024-02-16T02:00:30;13.40;99.90
32614;DHT22;19031;51.400;6.770;2024-02-16T02:02:56;13.40;99.90
32614;DHT22;19031;51.400;6.770;2024-02-16T02:05:22;13.40;99.90
32614;DHT22;19031;51.400;6.770;2024-02-16T02:07:48;13.40;99.90
32614;DHT22;19031;51.400;6.770;2024-02-16T02:10:14;13.40;99.90
32614;DHT22;19031;51.400;6.770;2024-02-16T02:12:40;13.30;99.90
32614;DHT22;19031;51.400;6.770;2024-02-16T02:15:08;13.30;99.90
32614;DHT22;19031;51.400;6.770;2024-02-16T02:17:34;13.30;99.90
32614;DHT22;19031;51.400;6.770;2024-02-16T02:20:00;13.30;99.90
32614;DHT22;19031;51.400;6.770;2024-02-16T02:22:25;13.40;99.90
32614;DHT22;19031;51.400;6.770;2024-02-16T02:24:52;13.50;99.90
32614;DHT22;19031;51.400;6.770;2024-02-16T02:27:21;13.50;99.90
32614;DHT22;19031;51.400;6.770;2024-02-16T02:29:47;13.40;99.90
32614;DHT22;19031;51.400;6.770;2024-02-16T02:32:12;13.40;99.90
32614;DHT22;19031;51.400;6.770;2024-02-16T02:34:38;13.40;99.90
32614;DHT22;19031;51.400;6.770;2024-02-16T02:37:05;13.30;99.90
32614;DHT22;19031;51.400;6.770;2024-02-16T02:39:31;13.30;99.90
32614;DHT22;19031;51.400;6.770;2024-02-16T02:41:57;13.30;99.90
32614;DHT22;19031;51.400;6.770;2024-02-16T02:44:23;13.30;99.90
32614;DHT22;19031;51.400;6.770;2024-02-16T02:46:49;13.20;99.90
32614;DHT22;19031;51.400;6.770;2024-02-16T02:49:15;13.20;99.90
32614;DHT22;19031;51.400;6.770;2024-02-16T02:51:40;13.20;99.90
32614;DHT22;19031;51.400;6.770;2024-02-16T02:54:06;13.10;99.90
32614;DHT22;19031;51.400;6.770;2024-02-16T02:56:31;13.10;99.90
32614;DHT22;19031;51.400;6.770;2024-02-16T02:58:57;13.10;99.90
32614;DHT22;19031;51.400;6.770;2024-02-16T03:01:22;13.00;99.90
32614;DHT22;19031;51.400;6.770;2024-02-16T03:03:48;13.00;99.90
32614;DHT22;19031;51.400;6.770;2024-02-16T03:06:20;12.90;99.90
32614;DHT22;19031;51.400;6.770;2024-02-16T03:08:46;13.00;99.90
32614;DHT22;19031;51.400;6.770;2024-02-16T03:11:12;13.10;99.90
32614;DHT22;19031;51.400;6.770;2024-02-16T03:13:37;13.10;99.90
32614;DHT22;19031;51.400;6.770;2024-02-16T03:16:03;13.00;99.90
32614;DHT22;19031;51.400;6.770;2024-02-16T03:18:30;13.00;99.90
32614;DHT22;19031;51.400;6.770;2024-02-16T03:20:56;13.00;99.90
32614;DHT22;19031;51.400;6.770;2024-02-16T03:23:22;13.00;99.90
32614;DHT22;19031;51.400;6.770;2024-02-16T03:25:48;13.00;99.90
32614;DHT22;19031;51.400;6.770;2024-02-16T03:28:14;13.00;99.90
32614;DHT22;19031;51.400;6.770;2024-02-16T03:30:40;13.00;99.90
32614;DHT22;19031;51.400;6.770;2024-02-16T03:33:05;13.00;99.90
32614;DHT22;19031;51.400;6.770;2024-02-16T03:35:32;13.00;99.90
32614;DHT22;19031;51.400;6.770;2024-02-16T03:37:57;12.90;99.90
32614;DHT22;19031;51.400;6.770;2024-02-16T03:40:24;13.00;99.90
32614;DHT22;19031;51.400;6.770;2024-02-16T03:42:50;13.00;99.90
32614;DHT22;19031;51.400;6.770;2024-02-16T03:45:16;12.90;99.90
32614;DHT22;19031;51.400;6.770;2024-02-16T03:47:42;13.00;99.90
32614;DHT22;19031;51.400;6.770;2024-02-16T03:50:07;13.10;99.90
32614;DHT22;19031;51.400;6.770;2024-02-16T03:52:33;13.10;99.90
32614;DHT22;19031;51.400;6.770;2024-02-16T03:54:59;13.10;99.90
32614;DHT22;19031;51.400;6.770;2024-02-16T03:57:25;13.10;99.90
32614;DHT22;19031;51.400;6.770;2024-02-16T03:59:51;13.20;99.90
32614;DHT22;19031;51.400;6.770;2024-02-16T04:02:17;13.10;99.90
32614;DHT22;19031;51.400;6.770;2024-02-16T04:04:42;13.10;99.90
32614;DHT22;19031;51.400;6.770;2024-02-16T04:07:08;13.20;99.90
32614;DHT22;19031;51.400;6.770;2024-02-16T04:09:34;13.20;99.90
32614;DHT22;19031;51.400;6.770;2024-02-16T04:12:00;13.20;99.90
32614;DHT22;19031;51.400;6.770;2024-02-16T04:14:26;13.10;99.90
32614;DHT22;19031;51.400;6.770;2024-02-16T04:16:52;13.10;99.90
32614;DHT22;19031;51.400;6.770;2024-02-16T04:19:18;13.10;99.90
32614;DHT22;19031;51.400;6.770;2024-02-16T04:21:43;13.10;99.90
32614;DHT22;19031;51.400;6.770;2024-02-16T04:24:10;13.10;99.90
32614;DHT22;19031;51.400;6.770;2024-02-16T04:26:35;13.20;99.90
32614;DHT22;19031;51.400;6.770;2024-02-16T04:29:02;13.20;99.90
32614;DHT22;19031;51.400;6.770;2024-02-16T04:31:29;13.10;99.90
32614;DHT22;19031;51.400;6.770;2024-02-16T04:33:55;13.10;99.90
32614;DHT22;19031;51.400;6.770;2024-02-16T04:36:20;13.10;99.90
32614;DHT22;19031;51.400;6.770;2024-02-16T04:38:46;13.10;99.90
32614;DHT22;19031;51.400;6.770;2024-02-16T04:41:12;13.10;99.90
32614;DHT22;19031;51.400;6.770;2024-02-16T04:43:38;13.10;99.90
32614;DHT22;19031;51.400;6.770;2024-02-16T04:46:04;12.90;99.90
32614;DHT22;19031;51.400;6.770;2024-02-16T04:48:30;12.90;99.90
32614;DHT22;19031;51.400;6.770;2024-02-16T04:50:57;13.00;99.90
32614;DHT22;19031;51.400;6.770;2024-02-16T04:53:23;13.00;99.90
32614;DHT22;19031;51.400;6.770;2024-02-16T04:55:48;12.80;99.90
32614;DHT22;19031;51.400;6.770;2024-02-16T04:58:14;12.80;99.90
32614;DHT22;19031;51.400;6.770;2024-02-16T05:00:39;12.90;99.90
32614;DHT22;19031;51.400;6.770;2024-02-16T05:03:06;12.80;99.90
32614;DHT22;19031;51.400;6.770;2024-02-16T05:05:32;12.80;99.90
32614;DHT22;19031;51.400;6.770;2024-02-16T05:07:57;12.90;99.90
32614;DHT22;19031;51.400;6.770;2024-02-16T05:10:23;12.80;99.90
32614;DHT22;19031;51.400;6.770;2024-02-16T05:12:48;12.90;99.90
32614;DHT22;19031;51.400;6.770;2024-02-16T05:15:14;12.80;99.90
32614;DHT22;19031;51.400;6.770;2024-02-16T05:17:41;12.80;99.90
32614;DHT22;19031;51.400;6.770;2024-02-16T05:20:10;12.80;99.90
32614;DHT22;19031;51.400;6.770;2024-02-16T05:22:43;12.80;99.90
32614;DHT22;19031;51.400;6.770;2024-02-16T05:25:14;12.80;99.90
32614;DHT22;19031;51.400;6.770;2024-02-16T05:27:40;12.80;99.90
32614;DHT22;19031;51.400;6.770;2024-02-16T05:30:06;12.80;99.90
32614;DHT22;19031;51.400;6.770;2024-02-16T05:32:35;12.70;99.90
32614;DHT22;19031;51.400;6.770;2024-02-16T05:35:05;12.70;99.90
32614;DHT22;19031;51.400;6.770;2024-02-16T05:37:38;12.70;99.90
32614;DHT22;19031;51.400;6.770;2024-02-16T05:40:08;12.60;99.90
32614;DHT22;19031;51.400;6.770;2024-02-16T05:42:34;12.60;99.90
32614;DHT22;19031;51.400;6.770;2024-02-16T05:45:00;12.60;99.90
32614;DHT22;19031;51.400;6.770;2024-02-16T05:47:26;12.60;99.90
32614;DHT22;19031;51.400;6.770;2024-02-16T05:49:52;12.50;99.90
32614;DHT22;19031;51.400;6.770;2024-02-16T05:52:18;12.50;99.90
32614;DHT22;19031;51.400;6.770;2024-02-16T05:54:47;12.50;99.90
32614;DHT22;19031;51.400;6.770;2024-02-16T05:57:13;12.50;99.90
32614;DHT22;19031;51.400;6.770;2024-02-16T05:59:40;12.40;99.90
32614;DHT22;19031;51.400;6.770;2024-02-16T06:02:07;12.50;99.90
32614;DHT22;19031;51.400;6.770;2024-02-16T06:04:33;12.50;99.90
32614;DHT22;19031;51.400;6.770;2024-02-16T06:06:59;12.50;99.90
32614;DHT22;19031;51.400;6.770;2024-02-16T06:09:25;12.50;99.90
32614;DHT22;19031;51.400;6.770;2024-02-16T06:11:51;12.60;99.90
32614;DHT22;19031;51.400;6.770;2024-02-16T06:14:16;12.50;99.90
32614;DHT22;19031;51.400;6.770;2024-02-16T06:16:42;12.60;99.90
32614;DHT22;19031;51.400;6.770;2024-02-16T06:19:08;12.60;99.90
32614;DHT22;19031;51.400;6.770;2024-02-16T06:21:35;12.60;99.90
32614;DHT22;19031;51.400;6.770;2024-02-16T06:24:00;12.60;99.90
32614;DHT22;19031;51.400;6.770;2024-02-16T06:26:26;12.70;99.90
32614;DHT22;19031;51.400;6.770;2024-02-16T06:28:51;12.70;99.90
32614;DHT22;19031;51.400;6.770;2024-02-16T06:31:17;12.80;99.90
32614;DHT22;19031;51.400;6.770;2024-02-16T06:33:43;12.70;99.90
32614;DHT22;19031;51.400;6.770;2024-02-16T06:36:08;12.80;99.90
32614;DHT22;19031;51.400;6.770;2024-02-16T06:38:36;12.80;99.90
32614;DHT22;19031;51.400;6.770;2024-02-16T06:41:01;12.70;99.90
32614;DHT22;19031;51.400;6.770;2024-02-16T06:43:28;12.80;99.90
32614;DHT22;19031;51.400;6.770;2024-02-16T06:45:54;12.70;99.90
32614;DHT22;19031;51.400;6.770;2024-02-16T06:48:22;12.90;99.90
32614;DHT22;19031;51.400;6.770;2024-02-16T06:50:47;12.80;99.90
32614;DHT22;19031;51.400;6.770;2024-02-16T06:53:13;12.80;99.90
32614;DHT22;19031;51.400;6.770;2024-02-16T06:55:38;12.90;99.90
32614;DHT22;19031;51.400;6.770;2024-02-16T06:58:04;12.90;99.90
32614;DHT22;19031;51.400;6.770;2024-02-16T07:00:29;12.80;99.90
32614;DHT22;19031;51.400;6.770;2024-02-16T07:02:55;12.90;99.90
32614;DHT22;19031;51.400;6.770;2024-02-16T07:05:20;12.90;99.90
32614;DHT22;19031;51.400;6.770;2024-02-16T07:07:46;12.80;99.90
32614;DHT22;19031;51.400;6.770;2024-02-16T07:10:11;12.80;99.90
32614;DHT22;19031;51.400;6.770;2024-02-16T07:12:39;12.80;99.90
32614;DHT22;19031;51.400;6.770;2024-02-16T07:15:06;12.90;99.90
32614;DHT22;19031;51.400;6.770;2024-02-16T07:17:31;12.90;99.90
32614;DHT22;19031;51.400;6.770;2024-02-16T07:19:57;12.80;99.90
32614;DHT22;19031;51.400;6.770;2024-02-16T07:22:22;12.90;99.90
32614;DHT22;19031;51.400;6.770;2024-02-16T07:24:48;12.90;99.90
32614;DHT22;19031;51.400;6.770;2024-02-16T07:27:13;13.00;99.90
32614;DHT22;19031;51.400;6.770;2024-02-16T07:29:39;12.90;99.90
32614;DHT22;19031;51.400;6.770;2024-02-16T07:32:05;13.00;99.90
32614;DHT22;19031;51.400;6.770;2024-02-16T07:34:30;13.00;99.90
32614;DHT22;19031;51.400;6.770;2024-02-16T07:36:56;13.00;99.90
32614;DHT22;19031;51.400;6.770;2024-02-16T07:39:22;13.10;99.90
32614;DHT22;19031;51.400;6.770;2024-02-16T07:41:49;13.10;99.90
32614;DHT22;19031;51.400;6.770;2024-02-16T07:44:14;13.20;99.90
32614;DHT22;19031;51.400;6.770;2024-02-16T07:46:43;13.30;99.90
32614;DHT22;19031;51.400;6.770;2024-02-16T07:49:08;13.40;99.90
32614;DHT22;19031;51.400;6.770;2024-02-16T07:51:36;13.40;99.90
32614;DHT22;19031;51.400;6.770;2024-02-16T07:54:02;13.50;99.90
32614;DHT22;19031;51.400;6.770;2024-02-16T07:56:28;13.60;99.90
32614;DHT22;19031;51.400;6.770;2024-02-16T07:58:56;13.50;99.90
32614;DHT22;19031;51.400;6.770;2024-02-16T08:01:21;13.70;99.90
32614;DHT22;19031;51.400;6.770;2024-02-16T08:03:47;13.80;99.90
32614;DHT22;19031;51.400;6.770;2024-02-16T08:06:13;13.80;99.90
32614;DHT22;19031;51.400;6.770;2024-02-16T08:08:39;13.80;99.90
32614;DHT22;19031;51.400;6.770;2024-02-16T08:11:05;13.80;99.90
32614;DHT22;19031;51.400;6.770;2024-02-16T08:13:30;13.90;99.90
32614;DHT22;19031;51.400;6.770;2024-02-16T08:15:56;13.90;99.90
32614;DHT22;19031;51.400;6.770;2024-02-16T08:18:22;13.90;99.90
32614;DHT22;19031;51.400;6.770;2024-02-16T08:20:47;14.00;99.90
32614;DHT22;19031;51.400;6.770;2024-02-16T08:23:13;14.00;99.90
32614;DHT22;19031;51.400;6.770;2024-02-16T08:25:39;14.10;99.90
32614;DHT22;19031;51.400;6.770;2024-02-16T08:28:04;14.10;99.90
32614;DHT22;19031;51.400;6.770;2024-02-16T08:30:30;14.10;99.90
32614;DHT22;19031;51.400;6.770;2024-02-16T08:32:56;14.30;99.90
32614;DHT22;19031;51.400;6.770;2024-02-16T08:35:25;14.40;99.90
32614;DHT22;19031;51.400;6.770;2024-02-16T08:37:53;14.40;99.90
32614;DHT22;19031;51.400;6.770;2024-02-16T08:40:19;14.50;99.90
32614;DHT22;19031;51.400;6.770;2024-02-16T08:42:45;14.60;99.90
32614;DHT22;19031;51.400;6.770;2024-02-16T08:45:10;14.60;99.90
32614;DHT22;19031;51.400;6.770;2024-02-16T08:47:37;14.70;99.90
32614;DHT22;19031;51.400;6.770;2024-02-16T08:50:04;14.80;99.90
32614;DHT22;19031;51.400;6.770;2024-02-16T08:52:31;14.80;99.90
32614;DHT22;19031;51.400;6.770;2024-02-16T08:54:56;14.80;99.90
32614;DHT22;19031;51.400;6.770;2024-02-16T08:57:22;14.70;99.90
32614;DHT22;19031;51.400;6.770;2024-02-16T08:59:47;14.80;99.90
32614;DHT22;19031;51.400;6.770;2024-02-16T09:02:13;14.90;99.90
32614;DHT22;19031;51.400;6.770;2024-02-16T09:04:38;14.90;99.90
32614;DHT22;19031;51.400;6.770;2024-02-16T09:07:05;14.90;99.90
32614;DHT22;19031;51.400;6.770;2024-02-16T09:09:31;14.90;99.90
32614;DHT22;19031;51.400;6.770;2024-02-16T09:11:56;14.90;99.90
32614;DHT22;19031;51.400;6.770;2024-02-16T09:14:23;14.90;99.90
32614;DHT22;19031;51.400;6.770;2024-02-16T09:16:49;15.00;99.90
32614;DHT22;19031;51.400;6.770;2024-02-16T09:19:17;14.90;99.90
32614;DHT22;19031;51.400;6.770;2024-02-16T09:21:42;15.00;99.90
32614;DHT22;19031;51.400;6.770;2024-02-16T09:24:08;15.00;99.90
32614;DHT22;19031;51.400;6.770;2024-02-16T09:26:36;15.10;99.90
32614;DHT22;19031;51.400;6.770;2024-02-16T09:29:02;15.10;99.90
32614;DHT22;19031;51.400;6.770;2024-02-16T09:31:28;15.10;99.90
32614;DHT22;19031;51.400;6.770;2024-02-16T09:33:53;15.10;99.90
32614;DHT22;19031;51.400;6.770;2024-02-16T09:36:19;15.10;99.90
32614;DHT22;19031;51.400;6.770;2024-02-16T09:38:47;15.30;99.90
32614;DHT22;19031;51.400;6.770;2024-02-16T09:41:13;15.30;99.90
32614;DHT22;19031;51.400;6.770;2024-02-16T09:43:41;15.40;99.90
32614;DHT22;19031;51.400;6.770;2024-02-16T09:46:08;15.40;99.90
32614;DHT22;19031;51.400;6.770;2024-02-16T09:48:34;15.50;99.90
32614;DHT22;19031;51.400;6.770;2024-02-16T09:51:00;15.50;99.90
32614;DHT22;19031;51.400;6.770;2024-02-16T09:53:27;15.50;99.90
32614;DHT22;19031;51.400;6.770;2024-02-16T09:55:53;15.60;99.90
32614;DHT22;19031;51.400;6.770;2024-02-16T09:58:20;15.60;99.90
32614;DHT22;19031;51.400;6.770;2024-02-16T10:03:25;15.80;99.90
32614;DHT22;19031;51.400;6.770;2024-02-16T10:05:52;15.80;99.90
32614;DHT22;19031;51.400;6.770;2024-02-16T10:08:18;15.80;99.90
32614;DHT22;19031;51.400;6.770;2024-02-16T10:10:44;15.80;99.90
32614;DHT22;19031;51.400;6.770;2024-02-16T10:13:10;15.80;99.90
32614;DHT22;19031;51.400;6.770;2024-02-16T10:15:37;15.80;99.90
32614;DHT22;19031;51.400;6.770;2024-02-16T10:18:06;16.00;99.90
32614;DHT22;19031;51.400;6.770;2024-02-16T10:20:33;16.00;99.90
32614;DHT22;19031;51.400;6.770;2024-02-16T10:23:11;16.00;99.90
32614;DHT22;19031;51.400;6.770;2024-02-16T10:25:40;16.00;99.90
32614;DHT22;19031;51.400;6.770;2024-02-16T10:28:08;15.90;99.90
32614;DHT22;19031;51.400;6.770;2024-02-16T10:30:36;16.00;99.90
32614;DHT22;19031;51.400;6.770;2024-02-16T10:33:03;16.10;99.90
32614;DHT22;19031;51.400;6.770;2024-02-16T10:35:30;16.10;99.90
32614;DHT22;19031;51.400;6.770;2024-02-16T10:37:55;16.20;99.90
32614;DHT22;19031;51.400;6.770;2024-02-16T10:40:23;16.10;99.90
32614;DHT22;19031;51.400;6.770;2024-02-16T10:42:51;16.10;99.90
32614;DHT22;19031;51.400;6.770;2024-02-16T10:45:17;16.10;99.90
32614;DHT22;19031;51.400;6.770;2024-02-16T10:47:44;16.10;99.90
32614;DHT22;19031;51.400;6.770;2024-02-16T10:50:11;16.10;99.90
32614;DHT22;19031;51.400;6.770;2024-02-16T10:52:39;16.00;99.90
32614;DHT22;19031;51.400;6.770;2024-02-16T10:55:06;16.00;99.90
32614;DHT22;19031;51.400;6.770;2024-02-16T10:57:32;16.00;99.90
32614;DHT22;19031;51.400;6.770;2024-02-16T11:00:00;15.90;99.90
32614;DHT22;19031;51.400;6.770;2024-02-16T11:02:26;16.00;99.90
32614;DHT22;19031;51.400;6.770;2024-02-16T11:04:52;15.90;99.90
32614;DHT22;19031;51.400;6.770;2024-02-16T11:07:19;15.90;99.90
32614;DHT22;19031;51.400;6.770;2024-02-16T11:09:46;15.90;99.90
32614;DHT22;19031;51.400;6.770;2024-02-16T11:12:13;15.80;99.90
32614;DHT22;19031;51.400;6.770;2024-02-16T11:14:46;15.70;99.90
32614;DHT22;19031;51.400;6.770;2024-02-16T11:17:20;15.60;99.90
32614;DHT22;19031;51.400;6.770;2024-02-16T11:19:47;15.60;99.90
32614;DHT22;19031;51.400;6.770;2024-02-16T11:22:16;15.60;99.90
32614;DHT22;19031;51.400;6.770;2024-02-16T11:24:48;15.60;99.90
32614;DHT22;19031;51.400;6.770;2024-02-16T11:27:15;15.60;99.90
32614;DHT22;19031;51.400;6.770;2024-02-16T11:29:44;15.50;99.90
32614;DHT22;19031;51.400;6.770;2024-02-16T11:32:10;15.50;99.90
32614;DHT22;19031;51.400;6.770;2024-02-16T11:34:36;15.40;99.90
32614;DHT22;19031;51.400;6.770;2024-02-16T11:37:04;15.50;99.90
32614;DHT22;19031;51.400;6.770;2024-02-16T11:39:30;15.50;99.90
32614;DHT22;19031;51.400;6.770;2024-02-16T11:44:34;15.40;99.90
32614;DHT22;19031;51.400;6.770;2024-02-16T11:47:00;15.30;99.90
32614;DHT22;19031;51.400;6.770;2024-02-16T11:49:31;15.40;99.90
32614;DHT22;19031;51.400;6.770;2024-02-16T11:51:59;15.40;99.90
32614;DHT22;19031;51.400;6.770;2024-02-16T11:54:25;15.40;99.90
32614;DHT22;19031;51.400;6.770;2024-02-16T11:56:51;15.40;99.90
32614;DHT22;19031;51.400;6.770;2024-02-16T11:59:19;15.40;99.90
32614;DHT22;19031;51.400;6.770;2024-02-16T12:01:55;15.40;99.90
32614;DHT22;19031;51.400;6.770;2024-02-16T12:04:26;15.40;99.90
32614;DHT22;19031;51.400;6.770;2024-02-16T12:07:01;15.40;99.90
32614;DHT22;19031;51.400;6.770;2024-02-16T12:09:28;15.40;99.90
32614;DHT22;19031;51.400;6.770;2024-02-16T12:11:54;15.40;99.90
32614;DHT22;19031;51.400;6.770;2024-02-16T12:14:24;15.30;99.90
32614;DHT22;19031;51.400;6.770;2024-02-16T12:16:56;15.30;99.90
32614;DHT22;19031;51.400;6.770;2024-02-16T12:19:22;15.30;99.90
32614;DHT22;19031;51.400;6.770;2024-02-16T12:21:55;15.30;99.90
32614;DHT22;19031;51.400;6.770;2024-02-16T12:24:24;15.30;99.90
32614;DHT22;19031;51.400;6.770;2024-02-16T12:26:50;15.20;99.90
32614;DHT22;19031;51.400;6.770;2024-02-16T12:29:16;15.20;99.90
32614;DHT22;19031;51.400;6.770;2024-02-16T12:31:44;15.10;99.90
32614;DHT22;19031;51.400;6.770;2024-02-16T12:34:10;15.10;99.90
32614;DHT22;19031;51.400;6.770;2024-02-16T12:36:38;15.20;99.90
32614;DHT22;19031;51.400;6.770;2024-02-16T12:39:04;15.10;99.90
32614;DHT22;19031;51.400;6.770;2024-02-16T12:41:33;15.20;99.90
32614;DHT22;19031;51.400;6.770;2024-02-16T12:43:59;15.10;99.90
32614;DHT22;19031;51.400;6.770;2024-02-16T12:46:25;15.10;99.90
32614;DHT22;19031;51.400;6.770;2024-02-16T12:48:51;15.00;99.90
32614;DHT22;19031;51.400;6.770;2024-02-16T12:51:18;14.90;99.90
32614;DHT22;19031;51.400;6.770;2024-02-16T12:53:45;14.90;99.90
32614;DHT22;19031;51.400;6.770;2024-02-16T12:56:10;15.00;99.90
32614;DHT22;19031;51.400;6.770;2024-02-16T12:58:37;14.90;99.90
32614;DHT22;19031;51.400;6.770;2024-02-16T13:01:06;14.90;99.90
32614;DHT22;19031;51.400;6.770;2024-02-16T13:03:35;14.80;99.90
32614;DHT22;19031;51.400;6.770;2024-02-16T13:06:02;14.80;99.90
32614;DHT22;19031;51.400;6.770;2024-02-16T13:08:29;14.90;99.90
32614;DHT22;19031;51.400;6.770;2024-02-16T13:10:55;14.90;99.90
32614;DHT22;19031;51.400;6.770;2024-02-16T13:13:21;14.80;99.90
32614;DHT22;19031;51.400;6.770;2024-02-16T13:15:50;14.80;99.90
32614;DHT22;19031;51.400;6.770;2024-02-16T13:18:16;14.80;99.90
32614;DHT22;19031;51.400;6.770;2024-02-16T13:20:43;14.80;99.90
32614;DHT22;19031;51.400;6.770;2024-02-16T13:23:08;14.80;99.90
32614;DHT22;19031;51.400;6.770;2024-02-16T13:25:35;14.70;99.90
32614;DHT22;19031;51.400;6.770;2024-02-16T13:28:01;14.70;99.90
32614;DHT22;19031;51.400;6.770;2024-02-16T13:30:28;14.60;99.90
32614;DHT22;19031;51.400;6.770;2024-02-16T13:32:54;14.60;99.90
32614;DHT22;19031;51.400;6.770;2024-02-16T13:35:20;14.60;99.90
32614;DHT22;19031;51.400;6.770;2024-02-16T13:37:45;14.70;99.90
32614;DHT22;19031;51.400;6.770;2024-02-16T13:40:11;14.70;99.90
32614;DHT22;19031;51.400;6.770;2024-02-16T13:42:40;14.60;99.90
32614;DHT22;19031;51.400;6.770;2024-02-16T13:45:09;14.60;99.90
32614;DHT22;19031;51.400;6.770;2024-02-16T13:47:36;14.50;99.90
32614;DHT22;19031;51.400;6.770;2024-02-16T13:50:02;14.30;99.90
32614;DHT22;19031;51.400;6.770;2024-02-16T13:52:28;14.40;99.90
32614;DHT22;19031;51.400;6.770;2024-02-16T13:54:54;14.30;99.90
32614;DHT22;19031;51.400;6.770;2024-02-16T13:57:19;14.30;99.90
32614;DHT22;19031;51.400;6.770;2024-02-16T13:59:46;14.20;99.90
32614;DHT22;19031;51.400;6.770;2024-02-16T14:02:12;14.20;99.90
32614;DHT22;19031;51.400;6.770;2024-02-16T14:04:38;14.10;99.90
32614;DHT22;19031;51.400;6.770;2024-02-16T14:07:04;14.10;99.90
32614;DHT22;19031;51.400;6.770;2024-02-16T14:09:30;14.00;99.90
32614;DHT22;19031;51.400;6.770;2024-02-16T14:11:55;14.00;99.90
32614;DHT22;19031;51.400;6.770;2024-02-16T14:14:24;14.00;99.90
32614;DHT22;19031;51.400;6.770;2024-02-16T14:16:50;13.90;99.90
32614;DHT22;19031;51.400;6.770;2024-02-16T14:19:16;13.80;99.90
32614;DHT22;19031;51.400;6.770;2024-02-16T14:21:43;13.80;99.90
32614;DHT22;19031;51.400;6.770;2024-02-16T14:24:09;13.80;99.90
32614;DHT22;19031;51.400;6.770;2024-02-16T14:26:36;13.80;99.90
32614;DHT22;19031;51.400;6.770;2024-02-16T14:29:02;13.80;99.90
32614;DHT22;19031;51.400;6.770;2024-02-16T14:31:27;13.80;99.90
32614;DHT22;19031;51.400;6.770;2024-02-16T14:33:53;13.70;99.90
32614;DHT22;19031;51.400;6.770;2024-02-16T14:36:19;13.70;99.90
32614;DHT22;19031;51.400;6.770;2024-02-16T14:38:44;13.80;99.90
32614;DHT22;19031;51.400;6.770;2024-02-16T14:41:10;13.80;99.90
32614;DHT22;19031;51.400;6.770;2024-02-16T14:43:35;13.70;99.90
32614;DHT22;19031;51.400;6.770;2024-02-16T14:46:01;13.50;99.90
32614;DHT22;19031;51.400;6.770;2024-02-16T14:48:29;13.40;99.90
32614;DHT22;19031;51.400;6.770;2024-02-16T14:50:55;13.40;99.90
32614;DHT22;19031;51.400;6.770;2024-02-16T14:53:21;13.40;99.90
32614;DHT22;19031;51.400;6.770;2024-02-16T14:55:49;13.40;99.90
32614;DHT22;19031;51.400;6.770;2024-02-16T14:58:18;13.30;99.90
32614;DHT22;19031;51.400;6.770;2024-02-16T15:00:44;13.30;99.90
32614;DHT22;19031;51.400;6.770;2024-02-16T15:03:10;13.30;99.90
32614;DHT22;19031;51.400;6.770;2024-02-16T15:05:35;13.30;99.90
32614;DHT22;19031;51.400;6.770;2024-02-16T15:08:01;13.20;99.90
32614;DHT22;19031;51.400;6.770;2024-02-16T15:10:28;13.30;99.90
32614;DHT22;19031;51.400;6.770;2024-02-16T15:12:54;13.20;99.90
32614;DHT22;19031;51.400;6.770;2024-02-16T15:15:19;13.30;99.90
32614;DHT22;19031;51.400;6.770;2024-02-16T15:17:48;13.20;99.90
32614;DHT22;19031;51.400;6.770;2024-02-16T15:20:14;13.20;99.90
32614;DHT22;19031;51.400;6.770;2024-02-16T15:22:39;13.20;99.90
32614;DHT22;19031;51.400;6.770;2024-02-16T15:25:07;13.20;99.90
32614;DHT22;19031;51.400;6.770;2024-02-16T15:27:33;13.30;99.90
32614;DHT22;19031;51.400;6.770;2024-02-16T15:29:59;13.20;99.90